createdAt,value
2018-08-25T00:00:54.928Z,15.03
2018-08-25T00:01:54.908Z,14.94
2018-08-25T00:02:54.884Z,14.98
2018-08-25T00:03:54.855Z,15.05
2018-08-25T00:04:54.994Z,15.07
2018-08-25T00:05:54.801Z,15.13
2018-08-25T00:06:54.831Z,15.04
2018-08-25T00:07:54.758Z,15.12
2018-08-25T00:08:54.747Z,15.18
2018-08-25T00:09:54.754Z,15.19
2018-08-25T00:10:54.715Z,15.16
2018-08-25T00:11:54.664Z,15.25
2018-08-25T00:12:54.660Z,15.15
2018-08-25T00:13:54.609Z,15.19
2018-08-25T00:14:54.603Z,15.18
2018-08-25T00:16:40.935Z,15.28
2018-08-25T00:17:40.931Z,15.31
2018-08-25T00:18:40.859Z,15.28
2018-08-25T00:19:40.844Z,15.28
2018-08-25T00:20:40.831Z,15.33
2018-08-25T00:21:40.797Z,15.31
2018-08-25T00:22:40.766Z,15.33
2018-08-25T00:23:40.740Z,15.31
2018-08-25T00:24:40.729Z,15.35
2018-08-25T00:25:40.695Z,15.34
2018-08-25T00:26:40.665Z,15.35
2018-08-25T00:27:40.644Z,15.37
2018-08-25T00:28:40.615Z,15.28
2018-08-25T00:29:40.601Z,15.31
2018-08-25T00:30:40.572Z,15.30
2018-08-25T00:31:40.544Z,15.34
2018-08-25T00:32:40.518Z,15.34
2018-08-25T00:33:40.529Z,15.31
2018-08-25T00:34:40.488Z,15.33
2018-08-25T00:35:40.455Z,15.28
2018-08-25T00:36:40.429Z,15.23
2018-08-25T00:37:40.403Z,15.22
2018-08-25T00:38:40.375Z,15.33
2018-08-25T00:39:40.360Z,15.20
2018-08-25T00:40:40.356Z,15.27
2018-08-25T00:41:40.317Z,15.18
2018-08-25T00:42:40.294Z,15.20
2018-08-25T00:43:40.255Z,15.30
2018-08-25T00:44:40.237Z,15.20
2018-08-25T00:45:40.227Z,15.18
2018-08-25T00:46:40.181Z,15.16
2018-08-25T00:47:40.231Z,15.27
2018-08-25T00:48:40.147Z,15.22
2018-08-25T00:50:27.028Z,15.19
2018-08-25T00:51:26.967Z,15.22
2018-08-25T00:52:26.944Z,15.28
2018-08-25T00:53:26.918Z,15.19
2018-08-25T00:54:26.901Z,15.15
2018-08-25T00:55:26.896Z,15.15
2018-08-25T00:56:26.875Z,15.18
2018-08-25T00:57:26.825Z,15.04
2018-08-25T00:58:26.826Z,15.04
2018-08-25T00:59:26.783Z,15.05
2018-08-25T01:00:26.749Z,15.12
2018-08-25T01:01:26.757Z,14.97
2018-08-25T01:02:26.697Z,15.04
2018-08-25T01:03:26.709Z,15.01
2018-08-25T01:04:26.657Z,14.87
2018-08-25T01:05:26.723Z,14.83
2018-08-25T01:06:26.602Z,15.03
2018-08-25T01:07:26.594Z,14.87
2018-08-25T01:08:26.562Z,14.95
2018-08-25T01:09:26.552Z,14.86
2018-08-25T01:10:26.532Z,15.00
2018-08-25T01:11:26.482Z,14.86
2018-08-25T01:12:26.461Z,14.80
2018-08-25T01:13:26.463Z,14.98
2018-08-25T01:14:26.420Z,14.87
2018-08-25T01:15:26.389Z,14.94
2018-08-25T01:16:26.362Z,14.79
2018-08-25T01:17:26.340Z,14.72
2018-08-25T01:18:26.316Z,14.83
2018-08-25T01:19:26.294Z,14.72
2018-08-25T01:20:26.274Z,14.66
2018-08-25T01:21:26.249Z,14.59
2018-08-25T01:22:26.224Z,14.72
2018-08-25T01:23:26.212Z,14.64
2018-08-25T01:24:26.166Z,14.54
2018-08-25T01:25:26.148Z,14.60
2018-08-25T01:26:26.130Z,14.54
2018-08-25T01:27:26.165Z,14.54
2018-08-25T01:28:26.080Z,14.46
2018-08-25T01:29:26.051Z,14.46
2018-08-25T01:30:26.055Z,14.45
2018-08-25T01:31:26.001Z,14.52
2018-08-25T01:32:25.974Z,14.49
2018-08-25T01:33:25.964Z,14.49
2018-08-25T01:34:25.936Z,14.44
2018-08-25T01:35:25.913Z,14.45
2018-08-25T01:36:25.883Z,14.49
2018-08-25T01:37:25.857Z,14.42
2018-08-25T01:38:25.880Z,14.46
2018-08-25T01:39:25.832Z,14.42
2018-08-25T01:40:25.800Z,14.45
2018-08-25T01:41:25.763Z,14.41
2018-08-25T01:42:25.729Z,14.42
2018-08-25T01:43:25.713Z,14.42
2018-08-25T01:44:25.767Z,14.36
2018-08-25T01:45:25.664Z,14.36
2018-08-25T01:46:25.698Z,14.39
2018-08-25T01:47:25.632Z,14.42
2018-08-25T01:48:25.596Z,14.39
2018-08-25T01:49:25.570Z,14.35
2018-08-25T01:50:26.665Z,14.35
2018-08-25T01:51:25.512Z,14.30
2018-08-25T01:52:25.486Z,14.30
2018-08-25T01:53:25.531Z,14.24
2018-08-25T01:54:25.441Z,14.30
2018-08-25T01:55:32.304Z,14.34
2018-08-25T01:56:25.409Z,14.24
2018-08-25T01:57:25.462Z,14.29
2018-08-25T01:58:25.350Z,14.34
2018-08-25T01:59:25.373Z,14.31
2018-08-25T02:00:25.298Z,14.26
2018-08-25T02:01:25.392Z,14.23
2018-08-25T02:02:25.286Z,14.26
2018-08-25T02:03:26.320Z,14.16
2018-08-25T02:04:25.193Z,14.34
2018-08-25T02:05:25.183Z,14.26
2018-08-25T02:06:25.221Z,14.12
2018-08-25T02:07:25.134Z,14.16
2018-08-25T02:08:25.121Z,14.20
2018-08-25T02:09:25.092Z,14.27
2018-08-25T02:10:25.146Z,14.13
2018-08-25T02:11:25.030Z,14.17
2018-08-25T02:12:25.061Z,14.20
2018-08-25T02:13:24.979Z,14.11
2018-08-25T02:14:25.991Z,14.21
2018-08-25T02:15:24.923Z,14.19
2018-08-25T02:16:26.001Z,14.12
2018-08-25T02:17:24.878Z,14.08
2018-08-25T02:18:25.910Z,14.21
2018-08-25T02:19:24.830Z,14.09
2018-08-25T02:20:24.900Z,14.24
2018-08-25T02:21:24.778Z,14.13
2018-08-25T02:22:25.839Z,14.24
2018-08-25T02:23:24.745Z,14.08
2018-08-25T02:24:25.748Z,14.11
2018-08-25T02:25:24.690Z,14.12
2018-08-25T02:26:24.739Z,14.06
2018-08-25T02:27:24.634Z,14.23
2018-08-25T02:28:24.649Z,14.24
2018-08-25T02:29:24.584Z,14.06
2018-08-25T02:30:24.665Z,14.30
2018-08-25T02:31:24.539Z,14.24
2018-08-25T02:32:24.570Z,14.34
2018-08-25T02:33:24.490Z,14.35
2018-08-25T02:34:24.483Z,14.36
2018-08-25T02:35:24.463Z,14.35
2018-08-25T02:36:29.333Z,14.35
2018-08-25T02:37:24.436Z,14.39
2018-08-25T02:38:24.410Z,14.41
2018-08-25T02:39:24.342Z,14.41
2018-08-25T02:40:24.421Z,14.49
2018-08-25T02:41:24.297Z,14.48
2018-08-25T02:42:24.332Z,14.54
2018-08-25T02:43:24.244Z,14.52
2018-08-25T02:44:28.861Z,14.57
2018-08-25T02:45:24.193Z,14.57
2018-08-25T02:46:24.281Z,14.63
2018-08-25T02:47:24.144Z,14.61
2018-08-25T02:48:25.203Z,14.66
2018-08-25T02:49:24.106Z,14.72
2018-08-25T02:50:24.189Z,14.64
2018-08-25T02:51:24.046Z,14.74
2018-08-25T02:52:24.043Z,14.85
2018-08-25T02:53:24.018Z,14.74
2018-08-25T02:55:10.133Z,14.83
2018-08-25T02:56:10.077Z,14.83
2018-08-25T02:57:10.046Z,14.80
2018-08-25T02:58:10.016Z,14.85
2018-08-25T02:59:09.997Z,14.85
2018-08-25T03:00:09.972Z,14.85
2018-08-25T03:01:09.942Z,14.97
2018-08-25T03:02:09.920Z,14.86
2018-08-25T03:03:09.904Z,14.93
2018-08-25T03:04:09.869Z,14.90
2018-08-25T03:05:09.854Z,14.80
2018-08-25T03:06:09.829Z,14.83
2018-08-25T03:07:09.912Z,14.82
2018-08-25T03:08:09.778Z,14.80
2018-08-25T03:09:09.825Z,14.71
2018-08-25T03:10:09.726Z,14.67
2018-08-25T03:11:09.735Z,14.64
2018-08-25T03:12:09.680Z,14.66
2018-08-25T03:13:09.748Z,14.74
2018-08-25T03:14:09.626Z,14.61
2018-08-25T03:15:09.659Z,14.60
2018-08-25T03:16:09.579Z,14.59
2018-08-25T03:17:09.566Z,14.64
2018-08-25T03:18:09.548Z,14.60
2018-08-25T03:19:09.609Z,14.67
2018-08-25T03:20:09.481Z,14.64
2018-08-25T03:21:09.495Z,14.60
2018-08-25T03:22:09.429Z,14.49
2018-08-25T03:23:09.503Z,14.42
2018-08-25T03:24:09.374Z,14.44
2018-08-25T03:25:09.414Z,14.44
2018-08-25T03:26:09.352Z,14.36
2018-08-25T03:27:55.709Z,14.16
2018-08-25T03:28:55.649Z,14.12
2018-08-25T03:29:55.622Z,14.09
2018-08-25T03:30:55.639Z,14.02
2018-08-25T03:31:55.623Z,13.96
2018-08-25T03:32:55.548Z,13.76
2018-08-25T03:33:55.546Z,13.62
2018-08-25T03:34:55.528Z,13.59
2018-08-25T03:35:55.481Z,13.54
2018-08-25T03:36:55.452Z,13.48
2018-08-25T03:37:55.443Z,13.50
2018-08-25T03:38:55.417Z,13.38
2018-08-25T03:39:55.387Z,13.35
2018-08-25T03:40:55.366Z,13.35
2018-08-25T03:41:55.326Z,13.29
2018-08-25T03:42:55.300Z,13.27
2018-08-25T03:43:55.284Z,13.17
2018-08-25T03:44:55.258Z,13.22
2018-08-25T03:45:55.237Z,13.12
2018-08-25T03:47:41.210Z,13.09
2018-08-25T03:48:41.147Z,13.01
2018-08-25T03:49:41.224Z,12.94
2018-08-25T03:50:41.140Z,12.89
2018-08-25T03:51:41.076Z,12.85
2018-08-25T03:52:41.138Z,12.96
2018-08-25T03:53:41.020Z,12.84
2018-08-25T03:54:41.067Z,12.87
2018-08-25T03:55:40.992Z,12.71
2018-08-25T03:56:40.957Z,12.77
2018-08-25T03:57:40.938Z,12.74
2018-08-25T03:58:40.936Z,12.81
2018-08-25T03:59:41.914Z,12.85
2018-08-25T04:00:40.853Z,12.89
2018-08-25T04:01:40.949Z,12.85
2018-08-25T04:02:40.805Z,12.79
2018-08-25T04:03:40.825Z,12.80
2018-08-25T04:04:40.766Z,12.74
2018-08-25T04:05:40.815Z,12.79
2018-08-25T04:06:40.719Z,12.77
2018-08-25T04:07:41.754Z,12.71
2018-08-25T04:08:40.655Z,12.76
2018-08-25T04:09:40.655Z,12.77
2018-08-25T04:10:40.639Z,12.77
2018-08-25T04:11:41.693Z,12.69
2018-08-25T04:13:26.757Z,12.67
2018-08-25T04:14:26.578Z,12.76
2018-08-25T04:16:26.162Z,12.70
2018-08-25T04:17:25.983Z,12.76
2018-08-25T04:18:25.992Z,12.73
2018-08-25T04:19:25.949Z,12.70
2018-08-25T04:20:30.798Z,12.71
2018-08-25T04:21:25.880Z,12.71
2018-08-25T04:22:25.924Z,12.67
2018-08-25T04:23:25.841Z,12.67
2018-08-25T04:24:25.904Z,12.58
2018-08-25T04:25:25.805Z,12.61
2018-08-25T04:26:25.829Z,12.62
2018-08-25T04:27:25.766Z,12.59
2018-08-25T04:28:26.768Z,12.58
2018-08-25T04:30:12.209Z,12.66
2018-08-25T04:31:12.160Z,12.61
2018-08-25T04:33:06.364Z,12.62
2018-08-25T04:34:06.436Z,12.74
2018-08-25T04:36:00.146Z,12.70
2018-08-25T04:37:00.036Z,12.70
2018-08-25T04:38:56.198Z,12.71
2018-08-25T04:39:56.209Z,12.58
2018-08-25T04:40:56.119Z,12.66
2018-08-25T04:41:56.098Z,12.76
2018-08-25T04:42:56.092Z,12.74
2018-08-25T04:43:56.033Z,12.80
2018-08-25T04:44:56.019Z,12.76
2018-08-25T04:45:55.991Z,12.69
2018-08-25T04:46:55.998Z,12.76
2018-08-25T04:47:55.948Z,12.67
2018-08-25T04:48:55.907Z,12.71
2018-08-25T04:49:55.874Z,12.70
2018-08-25T04:50:55.910Z,12.62
2018-08-25T04:51:56.901Z,12.66
2018-08-25T04:54:20.499Z,12.66
2018-08-25T04:55:20.307Z,12.71
2018-08-25T04:56:21.295Z,12.76
2018-08-25T04:57:20.265Z,12.71
2018-08-25T04:58:20.311Z,12.74
2018-08-25T04:59:20.249Z,12.77
2018-08-25T05:00:20.230Z,12.74
2018-08-25T05:01:20.173Z,12.79
2018-08-25T05:02:20.222Z,12.79
2018-08-25T05:03:20.107Z,12.73
2018-08-25T05:04:20.117Z,12.74
2018-08-25T05:05:20.060Z,12.79
2018-08-25T05:06:20.126Z,12.84
2018-08-25T05:07:19.995Z,12.81
2018-08-25T05:08:21.057Z,12.73
2018-08-25T05:10:06.980Z,12.69
2018-08-25T05:11:06.964Z,12.67
2018-08-25T05:12:06.910Z,12.79
2018-08-25T05:13:06.829Z,12.71
2018-08-25T05:14:06.874Z,12.71
2018-08-25T05:15:06.782Z,12.73
2018-08-25T05:16:06.778Z,12.66
2018-08-25T05:17:06.739Z,12.63
2018-08-25T05:19:08.126Z,12.62
2018-08-25T05:20:08.176Z,12.62
2018-08-25T05:21:08.052Z,12.67
2018-08-25T05:22:09.095Z,12.62
2018-08-25T05:23:08.006Z,12.71
2018-08-25T05:24:08.063Z,12.70
2018-08-25T05:25:07.970Z,12.67
2018-08-25T05:26:09.053Z,12.67
2018-08-25T05:27:07.913Z,12.71
2018-08-25T05:28:07.883Z,12.71
2018-08-25T05:29:07.897Z,12.61
2018-08-25T05:30:07.822Z,12.69
2018-08-25T05:31:07.911Z,12.56
2018-08-25T05:32:07.830Z,12.58
2018-08-25T05:33:07.810Z,12.63
2018-08-25T05:34:07.726Z,12.63
2018-08-25T05:35:54.379Z,12.62
2018-08-25T05:36:54.347Z,12.62
2018-08-25T05:37:54.239Z,12.59
2018-08-25T05:38:54.217Z,12.56
2018-08-25T05:39:54.193Z,12.56
2018-08-25T05:40:55.328Z,12.63
2018-08-25T05:41:54.154Z,12.56
2018-08-25T05:42:54.123Z,12.70
2018-08-25T05:43:54.188Z,12.61
2018-08-25T05:44:54.068Z,12.76
2018-08-25T05:45:54.053Z,12.79
2018-08-25T05:49:03.350Z,12.69
2018-08-25T05:50:03.280Z,12.79
2018-08-25T05:51:03.255Z,12.77
2018-08-25T05:52:03.262Z,12.79
2018-08-25T05:53:03.197Z,12.77
2018-08-25T05:54:03.195Z,12.74
2018-08-25T05:55:07.978Z,12.67
2018-08-25T05:56:03.116Z,12.74
2018-08-25T05:57:03.165Z,12.77
2018-08-25T05:58:03.064Z,12.77
2018-08-25T05:59:53.548Z,12.77
2018-08-25T06:00:55.558Z,12.81
2018-08-25T06:01:53.487Z,12.85
2018-08-25T06:02:53.439Z,12.95
2018-08-25T06:03:54.588Z,12.84
2018-08-25T06:04:53.493Z,12.87
2018-08-25T06:05:55.506Z,12.84
2018-08-25T06:06:53.356Z,12.85
2018-08-25T06:07:53.425Z,12.91
2018-08-25T06:08:53.296Z,12.94
2018-08-25T06:09:53.326Z,12.94
2018-08-25T06:10:53.262Z,12.98
2018-08-25T06:11:53.220Z,13.03
2018-08-25T06:12:53.218Z,12.94
2018-08-25T06:13:53.184Z,13.01
2018-08-25T06:14:53.155Z,13.04
2018-08-25T06:15:53.117Z,13.03
2018-08-25T06:16:57.777Z,13.07
2018-08-25T06:17:53.076Z,13.07
2018-08-25T06:18:54.106Z,13.13
2018-08-25T06:19:53.034Z,13.04
2018-08-25T06:20:53.107Z,13.10
2018-08-25T06:22:38.933Z,12.99
2018-08-25T06:23:38.794Z,13.06
2018-08-25T06:24:38.818Z,13.06
2018-08-25T06:25:39.815Z,13.09
2018-08-25T06:26:38.761Z,13.10
2018-08-25T06:27:38.851Z,13.06
2018-08-25T06:28:38.710Z,13.12
2018-08-25T06:29:38.773Z,13.17
2018-08-25T06:30:38.629Z,13.36
2018-08-25T06:31:38.631Z,13.41
2018-08-25T06:32:38.584Z,13.59
2018-08-25T06:33:39.685Z,13.54
2018-08-25T06:35:30.707Z,13.53
2018-08-25T06:36:31.758Z,13.48
2018-08-25T06:38:34.366Z,13.39
2018-08-25T06:39:34.399Z,13.39
2018-08-25T06:40:34.311Z,13.35
2018-08-25T06:41:56.417Z,13.21
2018-08-25T06:42:34.311Z,13.28
2018-08-25T06:43:47.098Z,13.17
2018-08-25T06:44:34.239Z,13.27
2018-08-25T06:45:35.368Z,13.22
2018-08-25T06:46:34.147Z,13.22
2018-08-25T06:47:41.091Z,13.29
2018-08-25T06:48:34.456Z,13.17
2018-08-25T06:49:56.172Z,13.13
2018-08-25T06:51:34.014Z,13.35
2018-08-25T06:52:34.141Z,13.29
2018-08-25T06:53:33.972Z,13.31
2018-08-25T06:54:33.946Z,13.38
2018-08-25T06:55:33.885Z,13.53
2018-08-25T06:56:33.958Z,13.48
2018-08-25T06:57:33.833Z,13.57
2018-08-25T06:58:33.823Z,13.65
2018-08-25T06:59:33.928Z,13.63
2018-08-25T07:00:33.782Z,13.63
2018-08-25T07:01:33.798Z,13.71
2018-08-25T07:02:33.705Z,13.53
2018-08-25T07:03:33.699Z,13.54
2018-08-25T07:04:33.667Z,13.53
2018-08-25T07:05:34.731Z,13.59
2018-08-25T07:06:33.626Z,13.62
2018-08-25T07:07:33.623Z,13.59
2018-08-25T07:08:33.573Z,13.65
2018-08-25T07:09:33.648Z,13.71
2018-08-25T07:10:33.514Z,13.69
2018-08-25T07:11:33.485Z,13.71
2018-08-25T07:12:33.457Z,13.73
2018-08-25T07:13:33.459Z,13.84
2018-08-25T07:14:33.408Z,13.91
2018-08-25T07:15:33.388Z,13.80
2018-08-25T07:16:33.379Z,13.83
2018-08-25T07:17:33.368Z,13.87
2018-08-25T07:18:33.310Z,13.84
2018-08-25T07:19:33.307Z,14.02
2018-08-25T07:20:33.261Z,14.01
2018-08-25T07:21:33.250Z,14.16
2018-08-25T07:22:33.332Z,14.12
2018-08-25T07:23:33.205Z,13.96
2018-08-25T07:24:33.235Z,14.01
2018-08-25T07:25:33.146Z,13.90
2018-08-25T07:26:33.129Z,14.02
2018-08-25T07:27:33.161Z,13.98
2018-08-25T07:28:33.075Z,13.83
2018-08-25T07:29:33.056Z,13.86
2018-08-25T07:31:19.300Z,13.63
2018-08-25T07:32:19.251Z,13.63
2018-08-25T07:33:19.201Z,13.55
2018-08-25T07:34:19.189Z,13.53
2018-08-25T07:35:19.168Z,13.50
2018-08-25T07:36:19.126Z,13.65
2018-08-25T07:37:19.114Z,13.51
2018-08-25T07:38:19.104Z,13.65
2018-08-25T07:39:19.057Z,13.57
2018-08-25T07:40:19.033Z,13.51
2018-08-25T07:41:19.212Z,13.57
2018-08-25T07:42:18.994Z,13.59
2018-08-25T07:43:18.969Z,13.72
2018-08-25T07:44:18.941Z,13.79
2018-08-25T07:45:18.990Z,13.88
2018-08-25T07:46:18.900Z,13.94
2018-08-25T07:47:19.023Z,13.96
2018-08-25T07:48:19.929Z,14.13
2018-08-25T07:49:18.840Z,14.23
2018-08-25T07:50:19.089Z,14.26
2018-08-25T07:51:18.776Z,14.56
2018-08-25T07:52:18.751Z,14.63
2018-08-25T07:53:18.744Z,14.49
2018-08-25T07:54:18.692Z,14.56
2018-08-25T07:55:18.711Z,14.54
2018-08-25T07:56:18.711Z,14.52
2018-08-25T07:57:18.626Z,14.48
2018-08-25T07:58:18.628Z,14.36
2018-08-25T07:59:18.889Z,14.42
2018-08-25T08:01:05.007Z,14.31
2018-08-25T08:02:04.961Z,14.34
2018-08-25T08:03:04.930Z,14.27
2018-08-25T08:04:04.937Z,14.29
2018-08-25T08:05:04.874Z,14.29
2018-08-25T08:06:04.852Z,14.27
2018-08-25T08:07:04.823Z,14.38
2018-08-25T08:08:04.815Z,14.36
2018-08-25T08:09:04.866Z,14.41
2018-08-25T08:10:04.788Z,14.53
2018-08-25T08:11:04.780Z,14.52
2018-08-25T08:12:04.737Z,14.56
2018-08-25T08:13:04.795Z,14.54
2018-08-25T08:14:04.658Z,14.56
2018-08-25T08:15:04.628Z,14.66
2018-08-25T08:16:04.609Z,14.57
2018-08-25T08:17:04.599Z,14.56
2018-08-25T08:18:04.630Z,14.61
2018-08-25T08:19:04.528Z,14.66
2018-08-25T08:20:04.651Z,14.69
2018-08-25T08:21:04.488Z,14.74
2018-08-25T08:22:04.474Z,14.82
2018-08-25T08:23:50.317Z,14.78
2018-08-25T08:24:50.337Z,14.80
2018-08-25T08:25:50.276Z,14.69
2018-08-25T08:26:50.233Z,14.66
2018-08-25T08:27:50.185Z,14.67
2018-08-25T08:28:50.162Z,14.66
2018-08-25T08:29:50.148Z,14.61
2018-08-25T08:30:50.248Z,14.61
2018-08-25T08:31:50.087Z,14.63
2018-08-25T08:32:50.089Z,14.72
2018-08-25T08:33:50.087Z,14.86
2018-08-25T08:34:50.020Z,14.83
2018-08-25T08:35:50.092Z,14.83
2018-08-25T08:36:49.982Z,14.72
2018-08-25T08:37:50.075Z,14.39
2018-08-25T08:38:49.929Z,14.23
2018-08-25T08:39:49.921Z,14.02
2018-08-25T08:40:49.935Z,14.06
2018-08-25T08:41:49.872Z,13.88
2018-08-25T08:42:49.943Z,13.83
2018-08-25T08:43:49.810Z,13.79
2018-08-25T08:44:49.869Z,13.80
2018-08-25T08:45:49.821Z,13.80
2018-08-25T08:46:49.787Z,13.65
2018-08-25T08:47:49.788Z,13.69
2018-08-25T08:49:46.456Z,13.81
2018-08-25T08:50:37.483Z,13.87
2018-08-25T08:51:37.632Z,13.94
2018-08-25T08:52:37.401Z,13.96
2018-08-25T08:53:37.326Z,14.09
2018-08-25T08:54:38.439Z,14.12
2018-08-25T08:55:37.277Z,14.08
2018-08-25T08:56:38.395Z,14.16
2018-08-25T08:57:37.234Z,14.17
2018-08-25T08:58:58.223Z,14.23
2018-08-25T08:59:37.193Z,14.27
2018-08-25T09:00:39.198Z,14.02
2018-08-25T09:01:37.234Z,14.13
2018-08-25T09:03:25.909Z,14.11
2018-08-25T09:04:25.853Z,14.30
2018-08-25T09:05:25.801Z,14.24
2018-08-25T09:06:25.806Z,14.36
2018-08-25T09:07:25.748Z,14.19
2018-08-25T09:08:25.809Z,14.23
2018-08-25T09:09:25.696Z,14.13
2018-08-25T09:10:25.748Z,14.23
2018-08-25T09:11:25.743Z,14.23
2018-08-25T09:12:25.636Z,14.27
2018-08-25T09:13:25.602Z,14.39
2018-08-25T09:14:25.654Z,14.56
2018-08-25T09:15:25.558Z,14.64
2018-08-25T09:16:25.528Z,14.69
2018-08-25T09:17:25.511Z,14.79
2018-08-25T09:18:25.475Z,14.85
2018-08-25T09:19:25.515Z,14.72
2018-08-25T09:20:26.525Z,14.53
2018-08-25T09:21:25.400Z,14.46
2018-08-25T09:22:25.378Z,14.59
2018-08-25T09:23:25.362Z,14.54
2018-08-25T09:24:25.345Z,14.54
2018-08-25T09:25:25.303Z,14.45
2018-08-25T09:26:25.275Z,14.48
2018-08-25T09:27:25.309Z,14.61
2018-08-25T09:28:25.225Z,14.82
2018-08-25T09:29:25.203Z,14.80
2018-08-25T09:30:30.155Z,15.05
2018-08-25T09:31:25.148Z,15.18
2018-08-25T09:32:25.161Z,15.19
2018-08-25T09:33:25.103Z,15.28
2018-08-25T09:34:25.090Z,15.30
2018-08-25T09:35:25.073Z,15.16
2018-08-25T09:36:25.155Z,14.93
2018-08-25T09:37:25.110Z,14.71
2018-08-25T09:38:24.985Z,14.59
2018-08-25T09:39:29.712Z,14.60
2018-08-25T09:40:24.928Z,14.36
2018-08-25T09:41:24.911Z,14.54
2018-08-25T09:42:24.910Z,14.64
2018-08-25T09:43:24.870Z,14.78
2018-08-25T09:44:25.904Z,14.93
2018-08-25T09:45:24.802Z,14.98
2018-08-25T09:46:24.855Z,14.97
2018-08-25T09:47:24.749Z,15.19
2018-08-25T09:48:26.817Z,15.19
2018-08-25T09:49:24.710Z,15.15
2018-08-25T09:50:24.768Z,15.18
2018-08-25T09:51:24.666Z,15.40
2018-08-25T09:52:24.699Z,15.55
2018-08-25T09:53:24.632Z,15.49
2018-08-25T09:54:24.676Z,15.44
2018-08-25T09:55:24.559Z,15.44
2018-08-25T09:56:24.524Z,15.52
2018-08-25T09:57:24.506Z,15.49
2018-08-25T09:58:24.479Z,15.55
2018-08-25T09:59:24.466Z,15.46
2018-08-25T10:00:24.464Z,15.41
2018-08-25T10:01:24.417Z,15.44
2018-08-25T10:02:24.384Z,15.58
2018-08-25T10:03:24.357Z,15.62
2018-08-25T10:04:24.334Z,15.68
2018-08-25T10:05:24.402Z,15.91
2018-08-25T10:06:24.281Z,15.88
2018-08-25T10:07:25.376Z,15.93
2018-08-25T10:08:24.237Z,15.92
2018-08-25T10:09:24.214Z,15.96
2018-08-25T10:10:24.191Z,15.99
2018-08-25T10:11:24.162Z,15.92
2018-08-25T10:12:24.190Z,15.73
2018-08-25T10:13:24.106Z,15.85
2018-08-25T10:14:24.096Z,15.95
2018-08-25T10:15:24.112Z,15.77
2018-08-25T10:16:24.088Z,15.92
2018-08-25T10:17:24.027Z,15.92
2018-08-25T10:18:24.034Z,15.96
2018-08-25T10:19:23.961Z,16.08
2018-08-25T10:20:24.030Z,16.27
2018-08-25T10:21:23.916Z,16.45
2018-08-25T10:22:23.966Z,16.55
2018-08-25T10:23:23.929Z,16.78
2018-08-25T10:24:23.860Z,16.90
2018-08-25T10:25:23.805Z,16.99
2018-08-25T10:26:23.883Z,16.88
2018-08-25T10:27:23.781Z,16.70
2018-08-25T10:28:23.796Z,16.40
2018-08-25T10:30:09.563Z,16.27
2018-08-25T10:31:09.491Z,16.23
2018-08-25T10:32:09.586Z,16.06
2018-08-25T10:33:09.448Z,16.30
2018-08-25T10:34:09.419Z,16.45
2018-08-25T10:35:09.390Z,16.73
2018-08-25T10:36:09.370Z,16.66
2018-08-25T10:37:09.349Z,16.55
2018-08-25T10:38:09.321Z,16.55
2018-08-25T10:39:09.291Z,16.47
2018-08-25T10:40:09.268Z,16.45
2018-08-25T10:41:09.264Z,16.69
2018-08-25T10:42:09.237Z,16.66
2018-08-25T10:43:09.199Z,16.67
2018-08-25T10:44:09.249Z,16.62
2018-08-25T10:45:09.144Z,16.55
2018-08-25T10:46:09.117Z,16.55
2018-08-25T10:47:09.189Z,16.81
2018-08-25T10:48:09.195Z,17.10
2018-08-25T10:49:09.188Z,17.33
2018-08-25T10:50:09.050Z,17.49
2018-08-25T10:51:09.100Z,17.55
2018-08-25T10:52:08.975Z,17.55
2018-08-25T10:53:09.117Z,17.43
2018-08-25T10:54:08.979Z,17.33
2018-08-25T10:55:09.015Z,17.32
2018-08-25T10:56:08.883Z,17.32
2018-08-25T10:57:08.848Z,17.15
2018-08-25T10:58:08.930Z,17.03
2018-08-25T10:59:08.804Z,17.12
2018-08-25T11:00:09.052Z,17.07
2018-08-25T11:01:08.863Z,16.98
2018-08-25T11:02:08.900Z,16.78
2018-08-25T11:03:08.709Z,16.90
2018-08-25T11:04:08.774Z,16.82
2018-08-25T11:05:08.655Z,17.00
2018-08-25T11:06:08.782Z,16.87
2018-08-25T11:07:08.607Z,17.03
2018-08-25T11:08:09.681Z,17.22
2018-08-25T11:09:08.558Z,17.55
2018-08-25T11:10:08.575Z,17.92
2018-08-25T11:11:08.505Z,18.21
2018-08-25T11:12:08.599Z,18.20
2018-08-25T11:13:08.683Z,18.36
2018-08-25T11:14:08.430Z,18.41
2018-08-25T11:15:08.509Z,18.50
2018-08-25T11:16:08.372Z,18.38
2018-08-25T11:17:08.426Z,18.09
2018-08-25T11:18:08.345Z,17.70
2018-08-25T11:19:08.327Z,17.68
2018-08-25T11:20:08.276Z,17.68
2018-08-25T11:21:08.345Z,17.65
2018-08-25T11:22:08.245Z,17.55
2018-08-25T11:23:08.269Z,17.35
2018-08-25T11:24:08.185Z,17.39
2018-08-25T11:25:08.166Z,17.46
2018-08-25T11:26:08.128Z,17.66
2018-08-25T11:27:08.129Z,18.01
2018-08-25T11:28:08.081Z,18.41
2018-08-25T11:29:54.370Z,19.16
2018-08-25T11:30:54.306Z,19.39
2018-08-25T11:31:54.310Z,19.16
2018-08-25T11:32:54.262Z,19.16
2018-08-25T11:33:54.247Z,19.16
2018-08-25T11:34:54.213Z,19.28
2018-08-25T11:35:54.184Z,19.39
2018-08-25T11:36:54.233Z,19.57
2018-08-25T11:37:54.343Z,19.76
2018-08-25T11:38:54.121Z,19.98
2018-08-25T11:39:54.090Z,19.92
2018-08-25T11:40:54.065Z,19.97
2018-08-25T11:41:54.043Z,19.72
2018-08-25T11:42:54.020Z,19.80
2018-08-25T11:43:54.023Z,19.71
2018-08-25T11:44:53.967Z,19.62
2018-08-25T11:45:53.973Z,19.64
2018-08-25T11:46:53.952Z,19.38
2018-08-25T11:47:53.897Z,19.15
2018-08-25T11:48:53.870Z,18.87
2018-08-25T11:49:53.854Z,18.60
2018-08-25T11:50:53.824Z,18.44
2018-08-25T11:51:53.801Z,18.19
2018-08-25T11:52:53.778Z,18.11
2018-08-25T11:53:53.837Z,18.09
2018-08-25T11:54:53.732Z,18.17
2018-08-25T11:55:53.699Z,18.26
2018-08-25T11:56:53.682Z,18.31
2018-08-25T11:57:53.650Z,18.36
2018-08-25T11:58:53.637Z,18.29
2018-08-25T11:59:53.714Z,18.46
2018-08-25T12:00:53.575Z,18.41
2018-08-25T12:01:53.619Z,18.60
2018-08-25T12:02:53.524Z,18.93
2018-08-25T12:03:53.506Z,19.09
2018-08-25T12:04:53.483Z,19.42
2018-08-25T12:05:53.459Z,19.43
2018-08-25T12:06:53.447Z,19.31
2018-08-25T12:07:53.412Z,19.42
2018-08-25T12:08:53.463Z,19.50
2018-08-25T12:09:53.361Z,19.62
2018-08-25T12:10:53.347Z,19.61
2018-08-25T12:11:53.316Z,19.62
2018-08-25T12:12:53.381Z,19.45
2018-08-25T12:13:53.271Z,19.58
2018-08-25T12:14:53.241Z,19.46
2018-08-25T12:15:53.217Z,19.52
2018-08-25T12:16:53.212Z,19.60
2018-08-25T12:17:53.165Z,19.62
2018-08-25T12:18:53.139Z,19.50
2018-08-25T12:19:53.124Z,19.12
2018-08-25T12:20:53.082Z,18.96
2018-08-25T12:21:53.074Z,18.82
2018-08-25T12:22:53.041Z,18.75
2018-08-25T12:23:53.017Z,18.71
2018-08-25T12:24:53.028Z,18.64
2018-08-25T12:25:52.966Z,18.56
2018-08-25T12:27:39.409Z,18.35
2018-08-25T12:28:39.370Z,18.13
2018-08-25T12:29:39.314Z,17.92
2018-08-25T12:30:39.315Z,17.89
2018-08-25T12:31:39.273Z,17.81
2018-08-25T12:32:39.249Z,17.89
2018-08-25T12:33:39.315Z,18.19
2018-08-25T12:34:39.197Z,18.16
2018-08-25T12:35:39.182Z,18.47
2018-08-25T12:36:39.154Z,18.65
2018-08-25T12:37:39.124Z,18.87
2018-08-25T12:38:39.124Z,18.94
2018-08-25T12:39:39.146Z,18.96
2018-08-25T12:40:39.071Z,19.12
2018-08-25T12:41:39.034Z,19.16
2018-08-25T12:42:39.014Z,19.24
2018-08-25T12:43:39.038Z,19.32
2018-08-25T12:44:38.981Z,19.52
2018-08-25T12:45:38.937Z,19.45
2018-08-25T12:46:38.948Z,19.24
2018-08-25T12:47:38.934Z,19.32
2018-08-25T12:48:38.906Z,19.42
2018-08-25T12:49:38.844Z,19.40
2018-08-25T12:50:38.839Z,19.28
2018-08-25T12:51:38.852Z,19.12
2018-08-25T12:52:38.769Z,19.17
2018-08-25T12:53:38.748Z,19.06
2018-08-25T12:54:38.722Z,19.02
2018-08-25T12:55:38.702Z,19.13
2018-08-25T12:56:38.670Z,19.17
2018-08-25T12:57:38.659Z,19.09
2018-08-25T12:58:38.662Z,19.17
2018-08-25T12:59:38.604Z,19.24
2018-08-25T13:00:38.586Z,19.46
2018-08-25T13:01:38.610Z,19.53
2018-08-25T13:02:38.529Z,19.55
2018-08-25T13:03:38.525Z,19.45
2018-08-25T13:04:38.478Z,19.62
2018-08-25T13:05:38.456Z,19.72
2018-08-25T13:06:38.525Z,19.76
2018-08-25T13:07:38.509Z,19.90
2018-08-25T13:08:38.395Z,20.13
2018-08-25T13:10:24.288Z,20.20
2018-08-25T13:11:24.222Z,20.27
2018-08-25T13:12:24.210Z,20.40
2018-08-25T13:13:24.206Z,20.37
2018-08-25T13:14:24.153Z,20.48
2018-08-25T13:15:24.131Z,20.57
2018-08-25T13:16:24.115Z,20.81
2018-08-25T13:17:24.082Z,20.66
2018-08-25T13:18:25.164Z,20.75
2018-08-25T13:19:24.057Z,20.79